createdAt,value
2018-03-17T00:01:21.009Z,77.80
2018-03-17T00:03:47.898Z,77.80
2018-03-17T00:06:14.790Z,78.10
2018-03-17T00:08:41.641Z,78.20
2018-03-17T00:11:08.575Z,78.30
2018-03-17T00:13:35.424Z,78.00
2018-03-17T00:16:02.315Z,77.90
2018-03-17T00:18:29.205Z,77.30
2018-03-17T00:20:56.124Z,77.80
2018-03-17T00:23:22.981Z,77.60
2018-03-17T00:25:49.924Z,77.60
2018-03-17T00:28:16.785Z,78.00
2018-03-17T00:30:43.686Z,77.40
2018-03-17T00:33:10.608Z,77.50
2018-03-17T00:35:37.489Z,77.40
2018-03-17T00:38:04.364Z,76.70
2018-03-17T00:40:31.245Z,77.00
2018-03-17T00:42:58.563Z,77.30
2018-03-17T00:45:25.435Z,77.30
2018-03-17T00:47:52.319Z,76.40
2018-03-17T00:50:19.190Z,76.00
2018-03-17T00:52:46.481Z,77.10
2018-03-17T00:55:13.406Z,77.10
2018-03-17T00:57:40.705Z,77.70
2018-03-17T01:00:07.582Z,77.70
2018-03-17T01:02:34.516Z,77.40
2018-03-17T01:05:01.490Z,77.40
2018-03-17T01:07:28.354Z,77.20
2018-03-17T01:09:55.303Z,77.10
2018-03-17T01:12:22.165Z,77.00
2018-03-17T01:14:49.115Z,77.30
2018-03-17T01:17:16.141Z,77.10
2018-03-17T01:19:42.967Z,76.90
2018-03-17T01:22:09.843Z,76.50
2018-03-17T01:24:37.101Z,75.60
2018-03-17T01:27:04.440Z,75.70
2018-03-17T01:29:31.289Z,75.70
2018-03-17T01:31:58.153Z,75.30
2018-03-17T01:34:25.008Z,76.20
2018-03-17T01:36:51.870Z,76.00
2018-03-17T01:39:18.818Z,76.20
2018-03-17T01:41:45.693Z,76.20
2018-03-17T01:44:12.554Z,76.00
2018-03-17T01:46:39.487Z,75.80
2018-03-17T01:49:06.340Z,76.00
2018-03-17T01:51:33.221Z,75.90
2018-03-17T01:54:12.157Z,75.90
2018-03-17T01:56:39.102Z,74.90
2018-03-17T01:59:05.962Z,75.30
2018-03-17T02:01:32.920Z,75.70
2018-03-17T02:03:59.775Z,75.00
2018-03-17T02:06:26.634Z,75.30
2018-03-17T02:08:53.512Z,75.60
2018-03-17T02:11:20.358Z,75.70
2018-03-17T02:13:47.234Z,75.80
2018-03-17T02:16:14.155Z,76.50
2018-03-17T02:18:41.048Z,76.40
2018-03-17T02:21:07.991Z,76.40
2018-03-17T02:23:34.937Z,76.60
2018-03-17T02:26:01.989Z,76.30
2018-03-17T02:28:28.847Z,76.30
2018-03-17T02:30:55.710Z,76.00
2018-03-17T02:33:22.575Z,76.30
2018-03-17T02:35:49.452Z,76.10
2018-03-17T02:38:16.334Z,76.40
2018-03-17T02:40:43.205Z,76.70
2018-03-17T02:43:10.103Z,76.00
2018-03-17T02:45:37.081Z,76.10
2018-03-17T02:48:03.940Z,76.60
2018-03-17T02:50:30.893Z,76.40
2018-03-17T02:52:57.782Z,76.50
2018-03-17T02:55:24.626Z,76.70
2018-03-17T02:57:51.508Z,76.40
2018-03-17T03:00:18.378Z,76.80
2018-03-17T03:02:45.639Z,76.10
2018-03-17T03:05:12.909Z,76.20
2018-03-17T03:07:40.276Z,75.90
2018-03-17T03:10:07.608Z,76.30
2018-03-17T03:12:34.741Z,76.30
2018-03-17T03:15:01.601Z,75.90
2018-03-17T03:17:28.561Z,75.30
2018-03-17T03:19:56.122Z,75.60
2018-03-17T03:22:22.972Z,75.60
2018-03-17T03:24:49.946Z,75.90
2018-03-17T03:27:16.807Z,75.80
2018-03-17T03:29:43.665Z,75.00
2018-03-17T03:32:10.531Z,75.00
2018-03-17T03:34:37.398Z,74.80
2018-03-17T03:37:04.249Z,75.00
2018-03-17T03:39:31.204Z,75.00
2018-03-17T03:41:58.073Z,75.30
2018-03-17T03:44:25.008Z,75.50
2018-03-17T03:46:51.884Z,75.10
2018-03-17T03:49:18.742Z,75.00
2018-03-17T03:51:45.681Z,74.80
2018-03-17T03:54:12.537Z,74.80
2018-03-17T03:56:39.510Z,74.30
2018-03-17T03:59:06.456Z,74.00
2018-03-17T04:01:33.413Z,74.30
2018-03-17T04:04:00.307Z,74.50
2018-03-17T04:06:27.189Z,74.70
2018-03-17T04:08:54.470Z,75.20
2018-03-17T04:11:21.766Z,75.60
2018-03-17T04:13:48.621Z,75.50
2018-03-17T04:16:15.492Z,75.30
2018-03-17T04:18:42.441Z,75.00
2018-03-17T04:21:09.337Z,75.00
2018-03-17T04:23:36.209Z,74.60
2018-03-17T04:26:03.540Z,74.80
2018-03-17T04:28:30.495Z,74.80
2018-03-17T04:30:57.450Z,74.60
2018-03-17T04:33:24.292Z,74.50
2018-03-17T04:35:51.178Z,74.30
2018-03-17T04:38:18.121Z,74.30
2018-03-17T04:40:45.076Z,74.40
2018-03-17T04:43:12.033Z,74.40
2018-03-17T04:45:38.907Z,73.50
2018-03-17T04:48:05.854Z,73.40
2018-03-17T04:50:32.760Z,74.00
2018-03-17T04:52:59.625Z,74.40
2018-03-17T04:55:27.054Z,75.40
2018-03-17T04:57:53.935Z,75.40
2018-03-17T05:00:20.857Z,75.30
2018-03-17T05:02:47.722Z,74.70
2018-03-17T05:05:14.675Z,74.60
2018-03-17T05:07:41.525Z,75.10
2018-03-17T05:10:08.403Z,75.00
2018-03-17T05:12:35.325Z,74.70
2018-03-17T05:15:02.574Z,74.30
2018-03-17T05:17:29.882Z,74.80
2018-03-17T05:19:56.761Z,74.80
2018-03-17T05:22:23.613Z,75.00
2018-03-17T05:24:50.497Z,74.90
2018-03-17T05:27:17.354Z,74.90
2018-03-17T05:29:44.237Z,74.90
2018-03-17T05:32:11.506Z,75.20
2018-03-17T05:34:38.819Z,75.20
2018-03-17T05:37:05.669Z,75.20
2018-03-17T05:39:32.617Z,75.10
2018-03-17T05:41:59.573Z,75.30
2018-03-17T05:44:26.415Z,75.30
2018-03-17T05:46:53.296Z,75.90
2018-03-17T05:49:20.156Z,75.00
2018-03-17T05:51:47.070Z,75.30
2018-03-17T05:54:14.329Z,74.80
2018-03-17T05:56:41.644Z,74.90
2018-03-17T05:59:08.505Z,74.90
2018-03-17T06:01:35.446Z,75.70
2018-03-17T06:04:02.411Z,75.50
2018-03-17T06:06:29.374Z,75.40
2018-03-17T06:08:56.246Z,74.80
2018-03-17T06:11:23.106Z,75.50
2018-03-17T06:13:50.069Z,76.00
2018-03-17T06:16:17.000Z,75.70
2018-03-17T06:18:43.906Z,75.90
2018-03-17T06:21:10.832Z,75.20
2018-03-17T06:23:37.796Z,75.30
2018-03-17T06:26:04.668Z,75.60
2018-03-17T06:28:31.534Z,74.80
2018-03-17T06:30:58.401Z,75.30
2018-03-17T06:33:25.730Z,75.80
2018-03-17T06:35:52.669Z,75.80
2018-03-17T06:38:19.647Z,75.70
2018-03-17T06:40:46.598Z,75.10
2018-03-17T06:43:13.740Z,75.20
2018-03-17T06:45:40.625Z,75.40
2018-03-17T06:48:07.561Z,75.80
2018-03-17T06:50:34.618Z,75.70
2018-03-17T06:53:01.494Z,74.80
2018-03-17T06:55:28.482Z,75.00
2018-03-17T06:57:55.421Z,74.60
2018-03-17T07:00:22.384Z,74.60
2018-03-17T07:02:49.235Z,75.00
2018-03-17T07:05:16.217Z,74.60
2018-03-17T07:07:43.165Z,75.00
2018-03-17T07:10:10.024Z,74.70
2018-03-17T07:12:36.884Z,74.30
2018-03-17T07:15:03.742Z,73.70
2018-03-17T07:17:30.697Z,74.00
2018-03-17T07:19:57.560Z,73.50
2018-03-17T07:22:24.509Z,74.10
2018-03-17T07:24:52.383Z,73.80
2018-03-17T07:27:19.937Z,74.10
2018-03-17T07:29:47.266Z,74.30
2018-03-17T07:32:14.215Z,74.30
2018-03-17T07:34:41.554Z,73.90
2018-03-17T07:37:09.128Z,73.10
2018-03-17T07:39:36.469Z,73.20
2018-03-17T07:42:03.476Z,73.20
2018-03-17T07:44:30.513Z,73.20
2018-03-17T07:46:57.748Z,73.30
2018-03-17T07:49:25.063Z,73.60
2018-03-17T07:51:52.032Z,73.60
2018-03-17T07:54:18.891Z,73.50
2018-03-17T07:56:45.782Z,72.80
2018-03-17T07:59:12.641Z,73.30
2018-03-17T08:01:39.587Z,73.80
2018-03-17T08:04:06.470Z,73.80
2018-03-17T08:06:33.719Z,73.50
2018-03-17T08:09:00.631Z,73.50
2018-03-17T08:11:27.508Z,73.60
2018-03-17T08:13:54.833Z,73.20
2018-03-17T08:16:21.729Z,73.20
2018-03-17T08:18:48.762Z,72.80
2018-03-17T08:21:16.340Z,72.80
2018-03-17T08:23:43.242Z,72.80
2018-03-17T08:26:10.181Z,73.40
2018-03-17T08:28:37.139Z,73.40
2018-03-17T08:31:04.014Z,73.50
2018-03-17T08:33:30.865Z,73.30
2018-03-17T08:35:57.751Z,72.50
2018-03-17T08:38:24.617Z,73.20
2018-03-17T08:40:51.892Z,73.40
2018-03-17T08:43:19.162Z,73.40
2018-03-17T08:45:46.452Z,73.50
2018-03-17T08:48:13.312Z,73.50
2018-03-17T08:50:40.173Z,73.40
2018-03-17T08:53:07.170Z,72.80
2018-03-17T08:55:33.981Z,72.20
2018-03-17T08:58:00.908Z,72.40
2018-03-17T09:00:27.706Z,72.60
2018-03-17T09:02:54.588Z,73.20
2018-03-17T09:05:21.527Z,73.00
2018-03-17T09:07:48.462Z,73.60
2018-03-17T09:10:15.755Z,72.60
2018-03-17T09:12:42.614Z,72.60
2018-03-17T09:15:09.501Z,72.90
2018-03-17T09:17:36.435Z,72.40
2018-03-17T09:20:03.295Z,72.60
2018-03-17T09:22:30.235Z,72.10
2018-03-17T09:24:57.273Z,72.00
2018-03-17T09:27:24.548Z,71.60
2018-03-17T09:29:51.502Z,71.60
2018-03-17T09:32:18.369Z,72.60
2018-03-17T09:34:45.385Z,72.20
2018-03-17T09:37:12.285Z,72.40
2018-03-17T09:39:39.153Z,72.50
2018-03-17T09:42:06.106Z,72.60
2018-03-17T09:44:32.958Z,71.80
2018-03-17T09:46:59.867Z,72.30
2018-03-17T09:49:26.832Z,72.10
2018-03-17T09:51:53.754Z,72.40
2018-03-17T09:54:20.644Z,72.80
2018-03-17T09:56:47.610Z,72.00
2018-03-17T09:59:14.861Z,72.60
2018-03-17T10:01:41.738Z,72.60
2018-03-17T10:04:09.001Z,72.60
2018-03-17T10:06:36.073Z,72.60
2018-03-17T10:09:03.357Z,71.30
2018-03-17T10:11:30.291Z,71.30
2018-03-17T10:13:57.572Z,71.80
2018-03-17T10:16:24.490Z,71.70
2018-03-17T10:18:51.457Z,71.90
2018-03-17T10:21:18.359Z,72.10
2018-03-17T10:23:45.257Z,72.10
2018-03-17T10:26:12.143Z,71.70
2018-03-17T10:28:39.060Z,71.70
2018-03-17T10:31:05.932Z,71.10
2018-03-17T10:33:32.888Z,71.70
2018-03-17T10:36:00.055Z,72.00
2018-03-17T10:38:26.966Z,72.20
2018-03-17T10:40:54.236Z,71.80
2018-03-17T10:43:21.411Z,71.80
2018-03-17T10:45:48.285Z,71.00
2018-03-17T10:48:15.232Z,70.90
2018-03-17T10:50:42.134Z,71.00
2018-03-17T10:53:09.072Z,71.10
2018-03-17T10:55:35.975Z,71.10
2018-03-17T10:58:03.213Z,70.60
2018-03-17T11:00:30.337Z,70.60
2018-03-17T11:02:57.211Z,70.70
2018-03-17T11:05:24.199Z,71.50
2018-03-17T11:07:51.153Z,71.80
2018-03-17T11:10:18.079Z,71.20
2018-03-17T11:12:45.172Z,70.70
2018-03-17T11:15:12.157Z,70.50
2018-03-17T11:17:39.094Z,70.70
2018-03-17T11:20:06.086Z,71.20
2018-03-17T11:22:32.949Z,71.60
2018-03-17T11:24:59.853Z,71.70
2018-03-17T11:27:26.719Z,71.50
2018-03-17T11:29:53.668Z,71.40
2018-03-17T11:32:20.528Z,71.10
2018-03-17T11:34:47.402Z,71.40
2018-03-17T11:37:14.369Z,71.70
2018-03-17T11:39:41.267Z,71.40
2018-03-17T11:42:08.167Z,71.10
2018-03-17T11:44:35.104Z,70.80
2018-03-17T11:47:02.097Z,70.80
2018-03-17T11:49:29.052Z,70.50
2018-03-17T11:51:56.329Z,70.60
2018-03-17T11:54:23.331Z,70.60
2018-03-17T11:56:50.286Z,70.00
2018-03-17T11:59:17.323Z,69.90
2018-03-17T12:01:44.237Z,70.70
2018-03-17T12:04:11.527Z,69.90
2018-03-17T12:06:38.493Z,70.00
2018-03-17T12:09:05.363Z,70.60
2018-03-17T12:11:32.224Z,70.00
2018-03-17T12:13:59.442Z,69.90
2018-03-17T12:16:26.677Z,69.90
2018-03-17T12:18:53.600Z,69.90
2018-03-17T12:21:20.449Z,70.00
2018-03-17T12:23:47.332Z,70.40
2018-03-17T12:26:14.214Z,70.60
2018-03-17T12:28:41.070Z,69.40
2018-03-17T12:31:07.946Z,68.80
2018-03-17T12:33:35.182Z,69.60
2018-03-17T12:36:02.130Z,69.60
2018-03-17T12:38:29.078Z,69.90
2018-03-17T12:40:55.938Z,70.10
2018-03-17T12:43:22.826Z,69.40
2018-03-17T12:45:49.721Z,69.60
2018-03-17T12:48:17.111Z,69.30
2018-03-17T12:50:44.382Z,69.10
2018-03-17T12:53:11.225Z,69.10
2018-03-17T12:55:38.125Z,70.40
2018-03-17T12:58:04.983Z,70.40
2018-03-17T13:00:31.926Z,69.70
2018-03-17T13:02:58.869Z,69.70
2018-03-17T13:05:25.829Z,70.10
2018-03-17T13:07:52.684Z,69.80
2018-03-17T13:10:19.566Z,69.60
2018-03-17T13:12:46.561Z,69.90
2018-03-17T13:15:13.823Z,69.10
2018-03-17T13:17:40.766Z,69.10
2018-03-17T13:20:07.693Z,68.80
2018-03-17T13:22:46.506Z,69.10
2018-03-17T13:25:13.471Z,68.30
2018-03-17T13:30:35.644Z,68.80
2018-03-17T13:33:02.966Z,69.00
2018-03-17T13:35:41.764Z,68.90
2018-03-17T13:38:09.037Z,67.50
2018-03-17T13:40:43.466Z,67.90
2018-03-17T13:43:10.631Z,67.90
2018-03-17T13:45:37.894Z,68.30
2018-03-17T13:48:04.742Z,68.30
2018-03-17T13:50:31.629Z,68.10
2018-03-17T13:52:58.573Z,67.90
2018-03-17T13:55:25.907Z,67.90
2018-03-17T13:57:52.859Z,67.90
2018-03-17T14:00:19.900Z,67.40
2018-03-17T14:02:46.777Z,67.80
2018-03-17T14:05:13.708Z,68.30
2018-03-17T14:07:40.618Z,68.80
2018-03-17T14:10:07.843Z,68.40
2018-03-17T14:12:34.772Z,68.40
2018-03-17T14:15:01.645Z,68.30
2018-03-17T14:17:28.540Z,68.50
2018-03-17T14:19:55.961Z,68.10
2018-03-17T14:22:22.853Z,68.10
2018-03-17T14:24:49.718Z,68.20
2018-03-17T14:27:16.634Z,68.30
2018-03-17T14:29:43.508Z,68.10
2018-03-17T14:32:10.457Z,68.90
2018-03-17T14:34:37.413Z,68.30
2018-03-17T14:37:04.380Z,68.20
2018-03-17T14:39:31.325Z,68.00
2018-03-17T14:41:58.372Z,68.20
2018-03-17T14:44:25.259Z,68.70
2018-03-17T14:46:52.142Z,68.40
2018-03-17T14:49:18.982Z,68.80
2018-03-17T14:51:45.848Z,68.80
2018-03-17T14:54:12.777Z,69.10
2018-03-17T14:56:39.676Z,68.90
2018-03-17T14:59:06.602Z,68.90
2018-03-17T15:01:33.482Z,68.30
2018-03-17T15:04:00.406Z,68.70
2018-03-17T15:06:27.258Z,69.00
2018-03-17T15:08:54.211Z,69.20
2018-03-17T15:11:21.151Z,69.10
2018-03-17T15:13:48.077Z,69.50
2018-03-17T15:16:14.996Z,70.80
2018-03-17T15:18:41.836Z,70.20
2018-03-17T15:21:08.722Z,69.60
2018-03-17T15:23:35.647Z,68.60
2018-03-17T15:26:02.541Z,69.00
2018-03-17T15:28:29.553Z,68.90
2018-03-17T15:30:56.872Z,69.20
2018-03-17T15:33:23.763Z,69.30
2018-03-17T15:35:50.700Z,69.00
2018-03-17T15:38:17.654Z,69.00
2018-03-17T15:40:44.598Z,69.00
2018-03-17T15:43:11.751Z,68.90
2018-03-17T15:45:39.016Z,69.00
2018-03-17T15:48:05.942Z,69.00
2018-03-17T15:50:32.791Z,69.30
2018-03-17T15:52:59.730Z,69.50
2018-03-17T15:55:26.618Z,69.60
2018-03-17T15:57:53.526Z,69.70
2018-03-17T16:00:20.407Z,69.70
2018-03-17T16:02:47.298Z,70.10
2018-03-17T16:05:14.551Z,69.80
2018-03-17T16:07:41.477Z,69.80
2018-03-17T16:10:08.449Z,69.60
2018-03-17T16:12:35.318Z,68.90
2018-03-17T16:15:02.179Z,68.70
2018-03-17T16:17:29.057Z,69.20
2018-03-17T16:19:56.339Z,69.40
2018-03-17T16:22:23.614Z,70.20
2018-03-17T16:24:50.625Z,70.20
2018-03-17T16:27:17.555Z,70.10
2018-03-17T16:29:44.513Z,69.60
2018-03-17T16:32:11.477Z,69.60
2018-03-17T16:34:38.353Z,69.50
2018-03-17T16:37:05.248Z,69.70
2018-03-17T16:39:32.165Z,69.40
2018-03-17T16:41:59.108Z,69.20
2018-03-17T16:44:25.977Z,68.80
2018-03-17T16:46:53.123Z,68.80
2018-03-17T16:49:20.133Z,69.40
2018-03-17T16:51:47.105Z,69.20
2018-03-17T16:54:13.954Z,69.40
2018-03-17T16:56:40.813Z,69.50
2018-03-17T16:59:07.730Z,69.60
2018-03-17T17:01:34.706Z,70.10
2018-03-17T17:04:01.603Z,70.00
2018-03-17T17:06:28.861Z,69.40
2018-03-17T17:08:55.962Z,69.40
2018-03-17T17:11:23.282Z,69.90
2018-03-17T17:13:50.262Z,69.90
2018-03-17T17:16:17.141Z,69.80
2018-03-17T17:18:43.989Z,69.30
2018-03-17T17:21:11.297Z,68.60
2018-03-17T17:23:38.364Z,68.60
2018-03-17T17:26:05.318Z,69.20
2018-03-17T17:28:32.360Z,69.40
2018-03-17T17:30:59.251Z,70.00
2018-03-17T17:33:26.110Z,69.70
2018-03-17T17:35:53.100Z,69.10
2018-03-17T17:38:20.100Z,69.40
2018-03-17T17:40:46.997Z,69.10
2018-03-17T17:43:13.935Z,69.40
2018-03-17T17:45:40.927Z,69.70
2018-03-17T17:48:07.871Z,69.70
2018-03-17T17:50:34.790Z,69.50
2018-03-17T17:53:02.695Z,69.30
2018-03-17T17:55:29.701Z,69.60
2018-03-17T17:57:56.654Z,70.00
2018-03-17T18:00:23.527Z,70.00
2018-03-17T18:02:50.462Z,69.60
2018-03-17T18:05:17.542Z,70.00
2018-03-17T18:07:44.586Z,69.40
2018-03-17T18:10:11.620Z,69.50
2018-03-17T18:12:38.897Z,69.40
2018-03-17T18:15:05.766Z,69.40
2018-03-17T18:17:32.811Z,69.40
2018-03-17T18:19:59.767Z,69.30
2018-03-17T18:22:27.010Z,69.20
2018-03-17T18:24:54.326Z,69.60
2018-03-17T18:27:21.221Z,69.60
2018-03-17T18:29:48.097Z,69.00
2018-03-17T18:32:15.414Z,68.80
2018-03-17T18:34:42.357Z,68.80
2018-03-17T18:37:09.253Z,69.00
2018-03-17T18:39:36.094Z,69.10
2018-03-17T18:42:02.958Z,69.40
2018-03-17T18:44:29.834Z,69.50
2018-03-17T18:46:56.711Z,69.70
2018-03-17T18:49:24.017Z,69.50
2018-03-17T18:51:50.900Z,69.50
2018-03-17T18:54:17.841Z,69.70
2018-03-17T18:56:44.797Z,69.70
2018-03-17T18:59:11.765Z,69.40
2018-03-17T19:01:38.628Z,69.40
2018-03-17T19:04:05.570Z,69.10
2018-03-17T19:06:32.417Z,68.90
2018-03-17T19:08:59.412Z,69.30
2018-03-17T19:11:26.461Z,69.00
2018-03-17T19:13:53.357Z,69.00
2018-03-17T19:16:20.218Z,69.40
2018-03-17T19:18:47.488Z,69.60
2018-03-17T19:21:14.737Z,69.90
2018-03-17T19:23:41.627Z,69.90
2018-03-17T19:26:08.499Z,69.60
2018-03-17T19:28:35.382Z,69.40
2018-03-17T19:31:02.321Z,69.40
2018-03-17T19:33:29.188Z,69.10
2018-03-17T19:35:56.925Z,69.10
2018-03-17T19:38:24.244Z,69.40
2018-03-17T19:40:51.098Z,69.40
2018-03-17T19:43:17.977Z,69.10
2018-03-17T19:45:44.902Z,69.30
2018-03-17T19:48:11.841Z,69.40
2018-03-17T19:50:39.158Z,69.80
2018-03-17T19:53:06.044Z,69.80
2018-03-17T19:55:33.294Z,69.80
2018-03-17T19:58:00.182Z,69.80
2018-03-17T20:00:27.459Z,69.70
2018-03-17T20:02:54.785Z,69.70
2018-03-17T20:05:21.673Z,69.70
2018-03-17T20:07:48.961Z,69.70
2018-03-17T20:10:15.830Z,69.70
2018-03-17T20:12:42.694Z,70.00
2018-03-17T20:15:09.568Z,69.90
2018-03-17T20:17:36.472Z,69.70
2018-03-17T20:20:03.774Z,68.70
2018-03-17T20:22:30.620Z,68.70
2018-03-17T20:24:57.602Z,68.90
2018-03-17T20:27:24.496Z,69.30
2018-03-17T20:29:51.333Z,69.90
2018-03-17T20:32:18.272Z,69.40
2018-03-17T20:34:45.136Z,69.50
2018-03-17T20:37:12.171Z,69.40
2018-03-17T20:39:38.961Z,68.90
2018-03-17T20:42:05.947Z,69.40
2018-03-17T20:44:32.819Z,69.50
2018-03-17T20:47:00.129Z,69.10
2018-03-17T20:49:27.011Z,69.10
2018-03-17T20:51:54.023Z,68.90
2018-03-17T20:54:21.288Z,69.60
2018-03-17T20:56:48.452Z,69.60
2018-03-17T20:59:15.709Z,69.70
2018-03-17T21:01:42.609Z,69.70
2018-03-17T21:04:09.550Z,69.30
2018-03-17T21:06:36.430Z,69.10
2018-03-17T21:09:03.287Z,69.10
2018-03-17T21:11:30.224Z,68.70
2018-03-17T21:13:57.108Z,68.90
2018-03-17T21:16:23.993Z,68.80
2018-03-17T21:18:51.248Z,69.40
2018-03-17T21:21:18.453Z,69.50
2018-03-17T21:23:45.399Z,69.90
2018-03-17T21:26:12.716Z,69.50
2018-03-17T21:28:39.673Z,69.50
2018-03-17T21:31:06.617Z,69.70
2018-03-17T21:33:33.479Z,69.70
2018-03-17T21:36:00.418Z,69.30
2018-03-17T21:38:27.829Z,68.90
2018-03-17T21:40:54.697Z,68.90
2018-03-17T21:43:21.618Z,69.80
2018-03-17T21:45:48.514Z,70.00
2018-03-17T21:48:15.405Z,69.40
2018-03-17T21:50:42.298Z,69.80
2018-03-17T21:53:09.253Z,70.20
2018-03-17T21:55:36.292Z,70.10
2018-03-17T21:58:03.552Z,70.20
2018-03-17T22:00:30.620Z,70.20
2018-03-17T22:02:57.907Z,70.20
2018-03-17T22:05:24.882Z,70.20
2018-03-17T22:07:51.808Z,70.10
2018-03-17T22:10:19.057Z,70.10
2018-03-17T22:12:46.357Z,69.50
2018-03-17T22:15:13.233Z,69.50
2018-03-17T22:17:40.100Z,70.00
2018-03-17T22:20:07.039Z,69.90
2018-03-17T22:22:33.986Z,70.40
2018-03-17T22:25:00.860Z,70.10
2018-03-17T22:27:27.740Z,69.60
2018-03-17T22:29:54.633Z,69.70
2018-03-17T22:32:21.500Z,70.20
2018-03-17T22:34:48.611Z,70.20
2018-03-17T22:37:15.461Z,70.20
2018-03-17T22:39:42.332Z,70.20
2018-03-17T22:42:09.249Z,70.60
2018-03-17T22:44:36.245Z,70.10
2018-03-17T22:47:03.226Z,70.60
2018-03-17T22:49:30.531Z,70.50
2018-03-17T22:51:57.402Z,70.50
2018-03-17T22:54:24.375Z,70.70
2018-03-17T22:56:51.315Z,70.40
2018-03-17T22:59:18.234Z,70.30
2018-03-17T23:01:45.078Z,70.00
2018-03-17T23:04:12.110Z,70.20
2018-03-17T23:06:39.058Z,70.80
2018-03-17T23:09:05.941Z,70.60
2018-03-17T23:11:32.801Z,70.60
2018-03-17T23:13:59.719Z,70.60
2018-03-17T23:16:26.809Z,71.00
2018-03-17T23:18:53.680Z,70.90
2018-03-17T23:21:20.594Z,71.40
2018-03-17T23:23:47.649Z,71.20
2018-03-17T23:26:14.645Z,70.70
2018-03-17T23:28:41.521Z,70.50
2018-03-17T23:31:08.440Z,70.20
2018-03-17T23:33:35.319Z,70.40
2018-03-17T23:36:02.258Z,70.40
2018-03-17T23:38:29.212Z,70.20
2018-03-17T23:40:56.141Z,70.50
2018-03-17T23:43:23.037Z,70.40
2018-03-17T23:45:50.007Z,70.80
2018-03-17T23:48:16.965Z,70.50
2018-03-17T23:50:43.822Z,70.60
2018-03-17T23:53:11.103Z,70.90
2018-03-17T23:55:38.053Z,70.90
2018-03-17T23:58:04.998Z,71.10
